sensor_id;sensor_type;location;lat;lon;timestamp;pressure;altitude;pressure_sealevel;temperature;humidity
69145;BME280;56251;50.324;17.574;2023-03-15T00:02:08;100875.23;;;4.12;66.48
69145;BME280;56251;50.324;17.574;2023-03-15T00:02:49;100874.19;;;4.17;66.63
69145;BME280;56251;50.324;17.574;2023-03-15T00:05:14;100879.13;;;4.04;66.63
69145;BME280;56251;50.324;17.574;2023-03-15T00:05:55;100874.45;;;4.11;66.55
69145;BME280;56251;50.324;17.574;2023-03-15T00:08:20;100880.34;;;4.11;66.77
69145;BME280;56251;50.324;17.574;2023-03-15T00:09:01;100887.48;;;4.10;66.74
69145;BME280;56251;50.324;17.574;2023-03-15T00:11:27;100889.68;;;4.18;66.50
69145;BME280;56251;50.324;17.574;2023-03-15T00:12:08;100890.45;;;4.12;66.76
69145;BME280;56251;50.324;17.574;2023-03-15T00:14:35;100897.05;;;4.25;66.30
69145;BME280;56251;50.324;17.574;2023-03-15T00:15:14;100899.54;;;4.25;66.12
69145;BME280;56251;50.324;17.574;2023-03-15T00:17:41;100895.75;;;4.11;66.32
69145;BME280;56251;50.324;17.574;2023-03-15T00:18:20;100890.19;;;4.12;66.39
69145;BME280;56251;50.324;17.574;2023-03-15T00:20:49;100888.35;;;4.16;66.49
69145;BME280;56251;50.324;17.574;2023-03-15T00:21:26;100895.47;;;4.17;66.41
69145;BME280;56251;50.324;17.574;2023-03-15T00:23:55;100896.30;;;3.98;66.69
69145;BME280;56251;50.324;17.574;2023-03-15T00:24:35;100896.62;;;4.02;66.86
69145;BME280;56251;50.324;17.574;2023-03-15T00:27:02;100895.02;;;3.99;67.17
69145;BME280;56251;50.324;17.574;2023-03-15T00:27:41;100892.70;;;4.04;67.05
69145;BME280;56251;50.324;17.574;2023-03-15T00:30:09;100894.55;;;4.15;66.51
69145;BME280;56251;50.324;17.574;2023-03-15T00:30:47;100891.30;;;4.12;66.48
69145;BME280;56251;50.324;17.574;2023-03-15T00:33:15;100898.73;;;4.13;66.69
69145;BME280;56251;50.324;17.574;2023-03-15T00:33:53;100895.27;;;4.16;66.69
69145;BME280;56251;50.324;17.574;2023-03-15T00:36:23;100901.77;;;4.17;66.74
69145;BME280;56251;50.324;17.574;2023-03-15T00:36:59;100907.65;;;4.17;66.77
69145;BME280;56251;50.324;17.574;2023-03-15T00:39:29;100917.31;;;4.27;66.41
69145;BME280;56251;50.324;17.574;2023-03-15T00:40:06;100919.09;;;4.33;66.27
69145;BME280;56251;50.324;17.574;2023-03-15T00:42:35;100930.01;;;4.26;66.08
69145;BME280;56251;50.324;17.574;2023-03-15T00:43:12;100930.62;;;4.21;66.13
69145;BME280;56251;50.324;17.574;2023-03-15T00:45:41;100939.87;;;4.21;66.38
69145;BME280;56251;50.324;17.574;2023-03-15T00:46:20;100940.84;;;4.29;66.23
69145;BME280;56251;50.324;17.574;2023-03-15T00:48:50;100950.10;;;4.29;65.86
69145;BME280;56251;50.324;17.574;2023-03-15T00:49:26;100944.48;;;4.32;65.82
69145;BME280;56251;50.324;17.574;2023-03-15T00:51:56;100954.91;;;4.33;65.33
69145;BME280;56251;50.324;17.574;2023-03-15T00:52:36;100954.04;;;4.32;65.16
69145;BME280;56251;50.324;17.574;2023-03-15T00:55:03;100958.13;;;4.35;64.92
69145;BME280;56251;50.324;17.574;2023-03-15T00:55:42;100955.69;;;4.29;64.87
69145;BME280;56251;50.324;17.574;2023-03-15T00:58:09;100955.75;;;4.31;64.93
69145;BME280;56251;50.324;17.574;2023-03-15T00:58:48;100958.77;;;4.26;65.12
69145;BME280;56251;50.324;17.574;2023-03-15T01:01:17;100962.04;;;4.22;65.18
69145;BME280;56251;50.324;17.574;2023-03-15T01:01:54;100962.40;;;4.16;65.17
69145;BME280;56251;50.324;17.574;2023-03-15T01:04:23;100975.01;;;4.23;64.46
69145;BME280;56251;50.324;17.574;2023-03-15T01:05:00;100978.21;;;4.28;64.57
69145;BME280;56251;50.324;17.574;2023-03-15T01:07:29;100982.60;;;4.19;64.09
69145;BME280;56251;50.324;17.574;2023-03-15T01:08:06;100985.61;;;4.21;64.00
69145;BME280;56251;50.324;17.574;2023-03-15T01:10:38;100988.12;;;4.36;64.03
69145;BME280;56251;50.324;17.574;2023-03-15T01:11:15;100990.62;;;4.44;63.80
69145;BME280;56251;50.324;17.574;2023-03-15T01:13:44;100991.59;;;4.34;63.54
69145;BME280;56251;50.324;17.574;2023-03-15T01:14:20;100997.84;;;4.37;63.68
69145;BME280;56251;50.324;17.574;2023-03-15T01:16:50;101002.25;;;4.31;63.72
69145;BME280;56251;50.324;17.574;2023-03-15T01:17:27;101003.70;;;4.38;63.84
69145;BME280;56251;50.324;17.574;2023-03-15T01:19:57;101000.07;;;4.23;64.07
69145;BME280;56251;50.324;17.574;2023-03-15T01:20:33;101005.70;;;4.25;63.95
69145;BME280;56251;50.324;17.574;2023-03-15T01:23:04;101012.34;;;4.28;63.80
69145;BME280;56251;50.324;17.574;2023-03-15T01:23:40;101008.30;;;4.30;63.56
69145;BME280;56251;50.324;17.574;2023-03-15T01:26:12;101018.59;;;4.40;63.19
69145;BME280;56251;50.324;17.574;2023-03-15T01:26:46;101024.30;;;4.35;63.34
69145;BME280;56251;50.324;17.574;2023-03-15T01:29:18;101024.73;;;4.33;63.26
69145;BME280;56251;50.324;17.574;2023-03-15T01:29:52;101028.16;;;4.32;63.22
69145;BME280;56251;50.324;17.574;2023-03-15T01:32:29;101031.77;;;4.22;63.15
69145;BME280;56251;50.324;17.574;2023-03-15T01:32:58;101033.09;;;4.22;63.08
69145;BME280;56251;50.324;17.574;2023-03-15T01:35:35;101035.72;;;4.18;63.11
69145;BME280;56251;50.324;17.574;2023-03-15T01:36:06;101032.89;;;4.33;62.89
69145;BME280;56251;50.324;17.574;2023-03-15T01:38:42;101042.42;;;4.41;62.48
69145;BME280;56251;50.324;17.574;2023-03-15T01:39:12;101039.20;;;4.35;62.41
69145;BME280;56251;50.324;17.574;2023-03-15T01:41:48;101038.80;;;4.49;61.96
69145;BME280;56251;50.324;17.574;2023-03-15T01:42:18;101047.06;;;4.46;62.08
69145;BME280;56251;50.324;17.574;2023-03-15T01:44:56;101049.12;;;4.44;62.00
69145;BME280;56251;50.324;17.574;2023-03-15T01:45:53;101048.07;;;4.50;61.77
69145;BME280;56251;50.324;17.574;2023-03-15T01:48:06;101038.41;;;4.47;60.91
69145;BME280;56251;50.324;17.574;2023-03-15T01:51:18;101047.44;;;4.41;60.80
69145;BME280;56251;50.324;17.574;2023-03-15T01:52:28;101051.91;;;4.38;60.95
69145;BME280;56251;50.324;17.574;2023-03-15T01:54:40;101064.83;;;4.37;61.14
69145;BME280;56251;50.324;17.574;2023-03-15T01:55:35;101069.89;;;4.29;61.05
69145;BME280;56251;50.324;17.574;2023-03-15T01:57:53;101077.06;;;4.43;61.07
69145;BME280;56251;50.324;17.574;2023-03-15T01:58:42;101076.16;;;4.39;61.28
69145;BME280;56251;50.324;17.574;2023-03-15T02:01:01;101072.69;;;4.41;61.39
69145;BME280;56251;50.324;17.574;2023-03-15T02:01:49;101073.62;;;4.24;61.30
69145;BME280;56251;50.324;17.574;2023-03-15T02:04:08;101081.44;;;4.46;61.31
69145;BME280;56251;50.324;17.574;2023-03-15T02:05:05;101079.24;;;4.55;60.96
69145;BME280;56251;50.324;17.574;2023-03-15T02:07:17;101076.45;;;4.64;60.62
69145;BME280;56251;50.324;17.574;2023-03-15T02:08:09;101068.96;;;4.51;60.76
69145;BME280;56251;50.324;17.574;2023-03-15T02:10:31;101075.88;;;4.56;60.40
69145;BME280;56251;50.324;17.574;2023-03-15T02:11:18;101077.74;;;4.50;60.44
69145;BME280;56251;50.324;17.574;2023-03-15T02:13:37;101081.44;;;4.52;60.68
69145;BME280;56251;50.324;17.574;2023-03-15T02:14:25;101084.98;;;4.59;60.59
69145;BME280;56251;50.324;17.574;2023-03-15T02:16:43;101091.57;;;4.57;60.56
69145;BME280;56251;50.324;17.574;2023-03-15T02:17:37;101079.52;;;4.54;60.51
69145;BME280;56251;50.324;17.574;2023-03-15T02:19:55;101090.25;;;4.40;60.45
69145;BME280;56251;50.324;17.574;2023-03-15T02:23:13;101092.40;;;4.55;60.39
69145;BME280;56251;50.324;17.574;2023-03-15T02:26:22;101103.85;;;4.47;60.44
69145;BME280;56251;50.324;17.574;2023-03-15T02:27:27;101103.34;;;4.35;60.50
69145;BME280;56251;50.324;17.574;2023-03-15T02:29:29;101106.91;;;4.36;59.82
69145;BME280;56251;50.324;17.574;2023-03-15T02:30:34;101112.24;;;4.27;60.37
69145;BME280;56251;50.324;17.574;2023-03-15T02:32:35;101112.96;;;4.29;60.85
69145;BME280;56251;50.324;17.574;2023-03-15T02:33:45;101110.95;;;4.24;60.92
69145;BME280;56251;50.324;17.574;2023-03-15T02:35:41;101111.34;;;4.10;61.00
69145;BME280;56251;50.324;17.574;2023-03-15T02:36:51;101109.79;;;4.10;61.22
69145;BME280;56251;50.324;17.574;2023-03-15T02:38:48;101113.88;;;4.12;61.15
69145;BME280;56251;50.324;17.574;2023-03-15T02:39:59;101116.51;;;4.18;61.23
69145;BME280;56251;50.324;17.574;2023-03-15T02:41:57;101117.17;;;4.19;61.40
69145;BME280;56251;50.324;17.574;2023-03-15T02:43:08;101120.70;;;4.29;61.26
69145;BME280;56251;50.324;17.574;2023-03-15T02:45:04;101117.95;;;4.20;61.51
69145;BME280;56251;50.324;17.574;2023-03-15T02:46:13;101120.69;;;4.26;61.19
69145;BME280;56251;50.324;17.574;2023-03-15T02:48:10;101119.91;;;4.42;60.88
69145;BME280;56251;50.324;17.574;2023-03-15T02:49:22;101116.55;;;4.25;61.02
69145;BME280;56251;50.324;17.574;2023-03-15T02:51:25;101114.16;;;4.23;60.94
69145;BME280;56251;50.324;17.574;2023-03-15T02:52:28;101113.24;;;4.16;61.07
69145;BME280;56251;50.324;17.574;2023-03-15T02:54:31;101123.20;;;4.21;61.03
69145;BME280;56251;50.324;17.574;2023-03-15T02:55:35;101131.77;;;4.24;61.08
69145;BME280;56251;50.324;17.574;2023-03-15T02:57:38;101135.03;;;4.22;61.24
69145;BME280;56251;50.324;17.574;2023-03-15T02:58:41;101136.22;;;4.16;61.30
69145;BME280;56251;50.324;17.574;2023-03-15T03:00:44;101141.45;;;4.16;60.68
69145;BME280;56251;50.324;17.574;2023-03-15T03:01:51;101139.27;;;4.09;60.78
69145;BME280;56251;50.324;17.574;2023-03-15T03:03:55;101138.91;;;4.08;60.52
69145;BME280;56251;50.324;17.574;2023-03-15T03:05:01;101138.37;;;4.06;60.54
69145;BME280;56251;50.324;17.574;2023-03-15T03:07:00;101151.58;;;4.03;60.43
69145;BME280;56251;50.324;17.574;2023-03-15T03:08:07;101154.70;;;4.07;60.70
69145;BME280;56251;50.324;17.574;2023-03-15T03:10:07;101170.31;;;4.04;60.87
69145;BME280;56251;50.324;17.574;2023-03-15T03:11:14;101168.77;;;4.04;60.69
69145;BME280;56251;50.324;17.574;2023-03-15T03:13:13;101173.30;;;4.04;60.88
69145;BME280;56251;50.324;17.574;2023-03-15T03:14:20;101178.98;;;4.07;60.90
69145;BME280;56251;50.324;17.574;2023-03-15T03:16:19;101184.16;;;4.12;60.46
69145;BME280;56251;50.324;17.574;2023-03-15T03:17:30;101183.07;;;4.13;60.36
69145;BME280;56251;50.324;17.574;2023-03-15T03:19:27;101182.41;;;4.13;60.24
69145;BME280;56251;50.324;17.574;2023-03-15T03:20:36;101181.81;;;4.16;60.30
69145;BME280;56251;50.324;17.574;2023-03-15T03:22:33;101190.84;;;4.13;60.34
69145;BME280;56251;50.324;17.574;2023-03-15T03:23:42;101190.82;;;4.18;60.14
69145;BME280;56251;50.324;17.574;2023-03-15T03:25:39;101195.13;;;4.10;60.04
69145;BME280;56251;50.324;17.574;2023-03-15T03:26:50;101197.57;;;4.10;60.12
69145;BME280;56251;50.324;17.574;2023-03-15T03:28:46;101199.47;;;4.05;60.33
69145;BME280;56251;50.324;17.574;2023-03-15T03:29:57;101199.00;;;4.18;60.20
69145;BME280;56251;50.324;17.574;2023-03-15T03:31:52;101199.30;;;4.04;60.22
69145;BME280;56251;50.324;17.574;2023-03-15T03:33:04;101197.82;;;4.00;60.10
69145;BME280;56251;50.324;17.574;2023-03-15T03:34:59;101193.02;;;4.00;60.25
69145;BME280;56251;50.324;17.574;2023-03-15T03:36:10;101192.21;;;3.95;60.28
69145;BME280;56251;50.324;17.574;2023-03-15T03:38:05;101187.92;;;3.96;60.04
69145;BME280;56251;50.324;17.574;2023-03-15T03:39:23;101180.05;;;4.00;59.99
69145;BME280;56251;50.324;17.574;2023-03-15T03:41:12;101175.65;;;4.01;59.95
69145;BME280;56251;50.324;17.574;2023-03-15T03:42:29;101176.67;;;4.07;60.01
69145;BME280;56251;50.324;17.574;2023-03-15T03:44:19;101176.37;;;4.10;59.82
69145;BME280;56251;50.324;17.574;2023-03-15T03:45:35;101175.06;;;4.15;59.70
69145;BME280;56251;50.324;17.574;2023-03-15T03:47:25;101170.02;;;4.01;59.96
69145;BME280;56251;50.324;17.574;2023-03-15T03:48:41;101167.05;;;4.05;59.97
69145;BME280;56251;50.324;17.574;2023-03-15T03:50:31;101157.88;;;4.01;59.93
69145;BME280;56251;50.324;17.574;2023-03-15T03:51:47;101156.79;;;3.96;60.30
69145;BME280;56251;50.324;17.574;2023-03-15T03:53:43;101159.06;;;3.81;60.60
69145;BME280;56251;50.324;17.574;2023-03-15T03:54:53;101157.66;;;3.82;60.64
69145;BME280;56251;50.324;17.574;2023-03-15T03:56:49;101159.73;;;3.81;60.62
69145;BME280;56251;50.324;17.574;2023-03-15T03:57:59;101164.28;;;3.76;60.62
69145;BME280;56251;50.324;17.574;2023-03-15T03:59:55;101171.95;;;3.68;60.86
69145;BME280;56251;50.324;17.574;2023-03-15T04:01:05;101167.81;;;3.69;60.78
69145;BME280;56251;50.324;17.574;2023-03-15T04:03:03;101169.37;;;3.72;60.83
69145;BME280;56251;50.324;17.574;2023-03-15T04:04:11;101167.88;;;3.71;60.70
69145;BME280;56251;50.324;17.574;2023-03-15T04:06:09;101167.80;;;3.69;60.81
69145;BME280;56251;50.324;17.574;2023-03-15T04:07:18;101169.23;;;3.73;60.81
69145;BME280;56251;50.324;17.574;2023-03-15T04:09:15;101171.95;;;3.83;60.46
69145;BME280;56251;50.324;17.574;2023-03-15T04:10:24;101173.87;;;3.81;60.41
69145;BME280;56251;50.324;17.574;2023-03-15T04:12:21;101175.67;;;3.79;60.43
69145;BME280;56251;50.324;17.574;2023-03-15T04:13:34;101172.35;;;3.86;60.27
69145;BME280;56251;50.324;17.574;2023-03-15T04:15:28;101174.23;;;3.90;60.16
69145;BME280;56251;50.324;17.574;2023-03-15T04:16:40;101180.09;;;3.87;60.08
69145;BME280;56251;50.324;17.574;2023-03-15T04:18:33;101194.36;;;4.00;59.71
69145;BME280;56251;50.324;17.574;2023-03-15T04:19:46;101199.80;;;4.05;59.48
69145;BME280;56251;50.324;17.574;2023-03-15T04:21:39;101211.04;;;4.03;59.22
69145;BME280;56251;50.324;17.574;2023-03-15T04:22:52;101208.12;;;3.96;59.33
69145;BME280;56251;50.324;17.574;2023-03-15T04:24:47;101210.53;;;3.78;59.63
69145;BME280;56251;50.324;17.574;2023-03-15T04:25:59;101211.06;;;3.82;59.79
69145;BME280;56251;50.324;17.574;2023-03-15T04:27:55;101220.65;;;3.96;59.40
69145;BME280;56251;50.324;17.574;2023-03-15T04:29:04;101218.69;;;3.83;59.52
69145;BME280;56251;50.324;17.574;2023-03-15T04:31:04;101225.98;;;3.90;59.45
69145;BME280;56251;50.324;17.574;2023-03-15T04:32:11;101224.10;;;3.92;59.40
69145;BME280;56251;50.324;17.574;2023-03-15T04:34:12;101222.26;;;3.76;59.90
69145;BME280;56251;50.324;17.574;2023-03-15T04:35:17;101214.44;;;3.82;59.93
69145;BME280;56251;50.324;17.574;2023-03-15T04:37:18;101220.23;;;3.91;59.72
69145;BME280;56251;50.324;17.574;2023-03-15T04:38:23;101212.84;;;4.00;59.58
69145;BME280;56251;50.324;17.574;2023-03-15T04:40:24;101217.84;;;3.98;59.49
69145;BME280;56251;50.324;17.574;2023-03-15T04:41:32;101224.84;;;3.88;59.49
69145;BME280;56251;50.324;17.574;2023-03-15T04:43:37;101224.80;;;3.82;59.53
69145;BME280;56251;50.324;17.574;2023-03-15T04:44:43;101221.38;;;3.68;59.82
69145;BME280;56251;50.324;17.574;2023-03-15T04:46:43;101224.98;;;3.77;59.89
69145;BME280;56251;50.324;17.574;2023-03-15T04:47:50;101223.65;;;3.83;59.84
69145;BME280;56251;50.324;17.574;2023-03-15T04:49:49;101225.02;;;3.73;60.21
69145;BME280;56251;50.324;17.574;2023-03-15T04:50:56;101223.33;;;3.76;60.35
69145;BME280;56251;50.324;17.574;2023-03-15T04:52:56;101232.30;;;3.62;60.64
69145;BME280;56251;50.324;17.574;2023-03-15T04:54:02;101232.60;;;3.65;60.70
69145;BME280;56251;50.324;17.574;2023-03-15T04:56:04;101236.34;;;3.59;60.76
69145;BME280;56251;50.324;17.574;2023-03-15T04:57:09;101236.12;;;3.64;60.48
69145;BME280;56251;50.324;17.574;2023-03-15T04:59:10;101239.77;;;3.58;60.49
69145;BME280;56251;50.324;17.574;2023-03-15T05:00:15;101242.64;;;3.52;60.23
69145;BME280;56251;50.324;17.574;2023-03-15T05:02:16;101251.95;;;3.57;60.27
69145;BME280;56251;50.324;17.574;2023-03-15T05:03:21;101256.06;;;3.48;60.43
69145;BME280;56251;50.324;17.574;2023-03-15T05:05:22;101263.93;;;3.47;60.42
69145;BME280;56251;50.324;17.574;2023-03-15T05:06:28;101264.94;;;3.54;60.47
69145;BME280;56251;50.324;17.574;2023-03-15T05:08:28;101267.02;;;3.47;60.58
69145;BME280;56251;50.324;17.574;2023-03-15T05:09:34;101263.16;;;3.52;60.48
69145;BME280;56251;50.324;17.574;2023-03-15T05:11:34;101269.40;;;3.59;60.28
69145;BME280;56251;50.324;17.574;2023-03-15T05:12:42;101272.95;;;3.62;60.29
69145;BME280;56251;50.324;17.574;2023-03-15T05:14:41;101275.35;;;3.64;60.17
69145;BME280;56251;50.324;17.574;2023-03-15T05:15:47;101277.21;;;3.67;60.27
69145;BME280;56251;50.324;17.574;2023-03-15T05:17:47;101274.94;;;3.67;60.50
69145;BME280;56251;50.324;17.574;2023-03-15T05:18:53;101280.68;;;3.66;60.55
69145;BME280;56251;50.324;17.574;2023-03-15T05:20:53;101277.56;;;3.77;60.58
69145;BME280;56251;50.324;17.574;2023-03-15T05:22:02;101282.29;;;3.80;60.64
69145;BME280;56251;50.324;17.574;2023-03-15T05:24:00;101275.59;;;3.79;60.53
69145;BME280;56251;50.324;17.574;2023-03-15T05:25:09;101272.44;;;3.78;60.75
69145;BME280;56251;50.324;17.574;2023-03-15T05:27:06;101273.67;;;3.74;60.76
69145;BME280;56251;50.324;17.574;2023-03-15T05:28:15;101274.25;;;3.77;60.60
69145;BME280;56251;50.324;17.574;2023-03-15T05:30:13;101283.24;;;3.64;61.01
69145;BME280;56251;50.324;17.574;2023-03-15T05:31:22;101281.07;;;3.46;61.29
69145;BME280;56251;50.324;17.574;2023-03-15T05:33:20;101289.43;;;3.33;61.80
69145;BME280;56251;50.324;17.574;2023-03-15T05:34:28;101286.63;;;3.23;61.99
69145;BME280;56251;50.324;17.574;2023-03-15T05:36:26;101281.80;;;3.16;62.23
69145;BME280;56251;50.324;17.574;2023-03-15T05:37:35;101284.30;;;3.27;62.20
69145;BME280;56251;50.324;17.574;2023-03-15T05:39:32;101278.00;;;3.10;62.90
69145;BME280;56251;50.324;17.574;2023-03-15T05:40:45;101276.85;;;3.13;62.90
69145;BME280;56251;50.324;17.574;2023-03-15T05:42:39;101278.45;;;3.20;62.84
69145;BME280;56251;50.324;17.574;2023-03-15T05:43:51;101281.97;;;3.13;63.19
69145;BME280;56251;50.324;17.574;2023-03-15T05:45:46;101282.26;;;3.13;63.26
69145;BME280;56251;50.324;17.574;2023-03-15T05:46:57;101287.47;;;3.14;63.26
69145;BME280;56251;50.324;17.574;2023-03-15T05:48:53;101290.48;;;3.23;62.99
69145;BME280;56251;50.324;17.574;2023-03-15T05:50:03;101286.90;;;3.23;63.03
69145;BME280;56251;50.324;17.574;2023-03-15T05:51:59;101296.60;;;3.14;63.17
69145;BME280;56251;50.324;17.574;2023-03-15T05:53:10;101304.92;;;3.17;63.10
69145;BME280;56251;50.324;17.574;2023-03-15T05:55:05;101307.44;;;3.20;63.01
69145;BME280;56251;50.324;17.574;2023-03-15T05:56:16;101308.51;;;3.28;62.84
69145;BME280;56251;50.324;17.574;2023-03-15T05:58:11;101318.20;;;3.08;62.93
69145;BME280;56251;50.324;17.574;2023-03-15T05:59:22;101322.50;;;3.04;62.61
69145;BME280;56251;50.324;17.574;2023-03-15T06:01:18;101328.91;;;3.14;62.34
69145;BME280;56251;50.324;17.574;2023-03-15T06:02:28;101320.66;;;3.25;62.11
69145;BME280;56251;50.324;17.574;2023-03-15T06:04:24;101335.82;;;3.39;61.80
69145;BME280;56251;50.324;17.574;2023-03-15T06:05:34;101344.52;;;3.46;61.48
69145;BME280;56251;50.324;17.574;2023-03-15T06:07:30;101351.15;;;3.52;61.39
69145;BME280;56251;50.324;17.574;2023-03-15T06:08:39;101354.34;;;3.63;60.86
69145;BME280;56251;50.324;17.574;2023-03-15T06:10:36;101351.08;;;3.73;60.38
69145;BME280;56251;50.324;17.574;2023-03-15T06:11:46;101356.42;;;3.72;60.37
69145;BME280;56251;50.324;17.574;2023-03-15T06:13:42;101354.41;;;3.86;60.26
69145;BME280;56251;50.324;17.574;2023-03-15T06:14:52;101362.20;;;3.81;60.37
69145;BME280;56251;50.324;17.574;2023-03-15T06:16:48;101364.50;;;3.85;59.95
69145;BME280;56251;50.324;17.574;2023-03-15T06:17:58;101368.87;;;4.02;59.47
69145;BME280;56251;50.324;17.574;2023-03-15T06:19:54;101369.19;;;4.02;59.64
69145;BME280;56251;50.324;17.574;2023-03-15T06:21:04;101376.14;;;3.96;59.71
69145;BME280;56251;50.324;17.574;2023-03-15T06:23:00;101377.61;;;4.11;59.09
69145;BME280;56251;50.324;17.574;2023-03-15T06:24:10;101377.88;;;4.10;59.12
69145;BME280;56251;50.324;17.574;2023-03-15T06:26:06;101380.27;;;4.25;59.09
69145;BME280;56251;50.324;17.574;2023-03-15T06:27:16;101385.76;;;4.25;58.92
69145;BME280;56251;50.324;17.574;2023-03-15T06:29:12;101389.59;;;4.17;58.55
69145;BME280;56251;50.324;17.574;2023-03-15T06:30:24;101393.23;;;4.24;58.47
69145;BME280;56251;50.324;17.574;2023-03-15T06:32:18;101388.53;;;4.23;58.44
69145;BME280;56251;50.324;17.574;2023-03-15T06:33:30;101391.59;;;4.24;58.15
69145;BME280;56251;50.324;17.574;2023-03-15T06:35:24;101397.17;;;4.44;57.73
69145;BME280;56251;50.324;17.574;2023-03-15T06:36:42;101399.09;;;4.38;57.46
69145;BME280;56251;50.324;17.574;2023-03-15T06:38:30;101412.34;;;4.41;57.52
69145;BME280;56251;50.324;17.574;2023-03-15T06:39:49;101417.73;;;4.46;57.52
69145;BME280;56251;50.324;17.574;2023-03-15T06:41:37;101419.85;;;4.56;57.52
69145;BME280;56251;50.324;17.574;2023-03-15T06:42:56;101432.39;;;4.67;57.11
69145;BME280;56251;50.324;17.574;2023-03-15T06:44:43;101434.11;;;4.74;56.50
69145;BME280;56251;50.324;17.574;2023-03-15T06:46:03;101432.51;;;4.76;56.59
69145;BME280;56251;50.324;17.574;2023-03-15T06:47:49;101435.45;;;4.86;56.53
69145;BME280;56251;50.324;17.574;2023-03-15T06:49:09;101433.05;;;4.92;56.00
69145;BME280;56251;50.324;17.574;2023-03-15T06:50:55;101441.05;;;5.05;55.45
69145;BME280;56251;50.324;17.574;2023-03-15T06:52:15;101440.13;;;5.08;55.24
69145;BME280;56251;50.324;17.574;2023-03-15T06:54:01;101441.98;;;5.20;54.97
69145;BME280;56251;50.324;17.574;2023-03-15T06:55:22;101440.67;;;5.24;54.69
69145;BME280;56251;50.324;17.574;2023-03-15T06:57:07;101446.54;;;5.39;54.49
69145;BME280;56251;50.324;17.574;2023-03-15T06:58:28;101444.39;;;5.40;53.48
69145;BME280;56251;50.324;17.574;2023-03-15T07:00:14;101449.76;;;5.37;53.16
69145;BME280;56251;50.324;17.574;2023-03-15T07:01:33;101455.09;;;5.36;52.74
69145;BME280;56251;50.324;17.574;2023-03-15T07:03:21;101457.03;;;5.33;52.85
69145;BME280;56251;50.324;17.574;2023-03-15T07:04:40;101454.09;;;5.40;52.61
69145;BME280;56251;50.324;17.574;2023-03-15T07:06:28;101458.29;;;5.42;51.88
69145;BME280;56251;50.324;17.574;2023-03-15T07:07:46;101466.50;;;5.44;52.11
69145;BME280;56251;50.324;17.574;2023-03-15T07:09:34;101467.67;;;5.27;52.25
69145;BME280;56251;50.324;17.574;2023-03-15T07:10:52;101464.57;;;5.16;52.21
69145;BME280;56251;50.324;17.574;2023-03-15T07:12:40;101459.21;;;5.26;52.30
69145;BME280;56251;50.324;17.574;2023-03-15T07:13:58;101467.84;;;5.28;52.28
69145;BME280;56251;50.324;17.574;2023-03-15T07:15:50;101465.80;;;5.36;52.47
69145;BME280;56251;50.324;17.574;2023-03-15T07:17:04;101471.45;;;5.40;52.29
69145;BME280;56251;50.324;17.574;2023-03-15T07:18:56;101478.20;;;5.28;52.36
69145;BME280;56251;50.324;17.574;2023-03-15T07:20:11;101479.07;;;5.47;52.60
69145;BME280;56251;50.324;17.574;2023-03-15T07:22:06;101480.06;;;5.34;52.15
69145;BME280;56251;50.324;17.574;2023-03-15T07:23:17;101489.71;;;5.29;52.09
69145;BME280;56251;50.324;17.574;2023-03-15T07:25:12;101489.79;;;5.18;52.05
69145;BME280;56251;50.324;17.574;2023-03-15T07:26:23;101486.56;;;5.31;52.19
69145;BME280;56251;50.324;17.574;2023-03-15T07:28:19;101491.25;;;5.37;52.48
69145;BME280;56251;50.324;17.574;2023-03-15T07:29:29;101495.03;;;5.33;52.49
69145;BME280;56251;50.324;17.574;2023-03-15T07:31:25;101496.64;;;5.43;52.53
69145;BME280;56251;50.324;17.574;2023-03-15T07:32:35;101493.84;;;5.39;52.44
69145;BME280;56251;50.324;17.574;2023-03-15T07:34:31;101500.38;;;5.68;52.06
69145;BME280;56251;50.324;17.574;2023-03-15T07:35:43;101501.54;;;5.48;51.85
69145;BME280;56251;50.324;17.574;2023-03-15T07:37:38;101499.59;;;5.53;52.35
69145;BME280;56251;50.324;17.574;2023-03-15T07:38:49;101502.04;;;5.58;52.14
69145;BME280;56251;50.324;17.574;2023-03-15T07:40:44;101513.00;;;5.81;52.02
69145;BME280;56251;50.324;17.574;2023-03-15T07:41:55;101511.69;;;5.72;51.76
69145;BME280;56251;50.324;17.574;2023-03-15T07:43:50;101516.44;;;5.81;51.59
69145;BME280;56251;50.324;17.574;2023-03-15T07:45:02;101523.12;;;5.88;51.56
69145;BME280;56251;50.324;17.574;2023-03-15T07:46:56;101530.56;;;6.04;51.02
69145;BME280;56251;50.324;17.574;2023-03-15T07:48:09;101533.44;;;5.95;50.87
69145;BME280;56251;50.324;17.574;2023-03-15T07:50:04;101536.42;;;5.99;50.40
69145;BME280;56251;50.324;17.574;2023-03-15T07:51:15;101535.23;;;5.87;50.56
69145;BME280;56251;50.324;17.574;2023-03-15T07:53:10;101536.77;;;5.76;50.18
69145;BME280;56251;50.324;17.574;2023-03-15T07:54:21;101542.39;;;5.80;50.64
69145;BME280;56251;50.324;17.574;2023-03-15T07:56:16;101543.76;;;5.87;51.15
69145;BME280;56251;50.324;17.574;2023-03-15T07:57:28;101544.70;;;5.86;51.42
69145;BME280;56251;50.324;17.574;2023-03-15T07:59:22;101542.77;;;5.92;51.36
69145;BME280;56251;50.324;17.574;2023-03-15T08:00:34;101544.22;;;6.00;51.14
69145;BME280;56251;50.324;17.574;2023-03-15T08:02:28;101546.77;;;5.95;51.08
69145;BME280;56251;50.324;17.574;2023-03-15T08:03:39;101547.14;;;6.21;50.66
69145;BME280;56251;50.324;17.574;2023-03-15T08:05:34;101549.75;;;6.26;49.74
69145;BME280;56251;50.324;17.574;2023-03-15T08:06:46;101548.74;;;6.24;49.90
69145;BME280;56251;50.324;17.574;2023-03-15T08:08:41;101552.17;;;6.19;49.77
69145;BME280;56251;50.324;17.574;2023-03-15T08:09:52;101553.06;;;6.23;50.00
69145;BME280;56251;50.324;17.574;2023-03-15T08:11:47;101554.83;;;6.38;49.92
69145;BME280;56251;50.324;17.574;2023-03-15T08:12:58;101554.42;;;6.54;50.18
69145;BME280;56251;50.324;17.574;2023-03-15T08:14:53;101553.34;;;6.56;49.76